Bellevue, Texas
Current Conditions -  °F | °C
As of 4:55 AM on Monday 20 Oct 2014 (Local Time) from K0F2 Reporting Station
Haze Haze  
Wind Chill: 56°   Ceiling: Unl
Heat Index: 56°   Visibility: 5mi
Dew Point: 56°   Wind: 3mph
Humidity: 97%   Direction: 150°SSE
Pressure: 30.05"   Gusts: NA
Location:  33.64°N, 98.01°W
Report Text: K0F2 200955Z AUTO 15003KT 5SM BR CLR 14/13 A3005 RMK AO2 T01350131
Loading
Personal Weather Stations






























Interactive Weather Map
Tropical Storm Tracking
New forecast layout! Learn more

10-Day Weather Forecast

Advertisements
Track Severe Weather on mobile